Aeroporto :
LOGIN :

Iscrizione | Disclaimer

   EN    FR    IT 

 










Sommario :    VFR   VFR Marginale   IFR   IFR Intensivo   IFR Molto Intensivo
Visibilità : 
Base nubi : 
>= 8 km
>= 3000ft
5 / 8 km
1000 / 3000 ft
1500m / 5 km
500 / 1000 ft
800 / 1500m
200 / 500 ft
< 800m
< 200 ft
Simboli :   Temporali  Nebbia  Neve Forte  Precipitazioni Forti  Vento > 20 kt
SIGMETs :   Varie  Temporali  Ghiacco  Turbolenza  Onda orograficha  Ceneri Vulcaniche






- Altitudine del aeroporto : 3 ft
- Codice IATA : LWR


EHLW - Leuuwarden Air Base

ULTIMO METAR :
  • 121125Z AUTO 20015KT 140V230 9999 SCT012 BKN014 OVC034 06/04 Q0997 GRN

METARs OBSOLETI :
  • 121059Z AUTO 19013KT 150V230 //// // FEW012 BKN014 BKN018 06/04 Q0997
  • 121055Z AUTO 19014KT 160V220 //// // FEW011 SCT013 BKN015 06/04 Q0997
  • 121025Z AUTO 18013KT 150V220 9999 // FEW007 SCT010 BKN013 06/04 Q0997 RE//
  • 120955Z AUTO 20014KT 160V230 9999 // SCT010 BKN012 OVC015 05/04 Q0997 RE//
  • 120925Z AUTO 20013KT 150V230 9999 // SCT013 SCT031 BKN038 06/04 Q0997
  • 120855Z AUTO 20012KT 160V230 9999 SCT030 BKN035 BKN054 05/04 Q0997 BLU

TAF TAF EHLW
Valido dal 12 a 10 ore il 12 a 22 ore UTC


120915Z 1210/1222 19010G20KT 9999 FEW018 SCT040
TEMPO 1210/1218 20014G24KT 4500 SHRA SCT012 SCT018CB BKN020
PROB30
TEMPO 1210/1216 21016G30KT 3000 TSRAGS SCT006 BKN012 BKN015CB
BECMG 1220/1222 SCT015 BKN020



MetMap, La meteo Aeronautica in un colpo d'occhio ! - Copyright ORBIFLY Dicembre 2007 - Disclaimer

ORBIFLY MET'MAP TEAM :

Programmazione e sviluppo : Alexandra Zaïnal
Concezione e sviluppo : Baudouin d'Aumeries
Co-Programmazione e sviluppo : Marc-Olivier Méhu
Supporto tecnico e logistico : Manuel Goepfert
Aiuto per la traduzione : Arnaldo La Scala

Contatto : metmap@orbifly.com




FONTI E CREDITI :

   NOAA